Time;durP1;ratioP1;P1;durP2;ratioP2;P2;SDS_P1;SDS_P2;PMS_P1;PMS_P2;Temp;Humidity;BMP_temperature;BMP_pressure;BME280_temperature;BME280_humidity;BME280_pressure;Samples;Min_cycle;Max_cycle;Signal;HPM_P1;HPM_P2
2024/04/02 00:00:36;;;;;;;;;;;21.60;44.00;;;;;;3053192;19;4605;-25
2024/04/02 00:01:37;;;;;;;;;;;21.00;43.70;;;;;;3052597;19;4762;-26
2024/04/02 00:02:37;;;;;;;;;;;21.60;44.00;;;;;;3045710;19;5640;-25
2024/04/02 00:03:38;;;;;;;;;;;21.50;43.90;;;;;;3053333;19;4681;-27
2024/04/02 00:04:38;;;;;;;;;;;21.60;43.90;;;;;;3052100;19;4774;-24
2024/04/02 00:05:40;;;;;;;;;;;21.60;43.90;;;;;;3032004;19;4549;-25
2024/04/02 00:06:40;;;;;;;;;;;21.60;44.00;;;;;;3052098;19;4645;-25
2024/04/02 00:07:41;;;;;;;;;;;21.60;44.00;;;;;;3032003;19;4618;-23
2024/04/02 00:08:42;;;;;;;;;;;21.60;44.00;;;;;;3053167;19;4621;-26
2024/04/02 00:09:42;;;;;;;;;;;21.60;43.90;;;;;;3052918;19;4692;-23
2024/04/02 00:10:43;;;;;;;;;;;21.60;43.90;;;;;;3037023;19;5830;-25
2024/04/02 00:11:43;;;;;;;;;;;21.60;43.90;;;;;;3052237;19;4629;-24
2024/04/02 00:12:44;;;;;;;;;;;21.60;43.90;;;;;;3052225;19;4696;-24
2024/04/02 00:13:46;;;;;;;;;;;21.60;43.90;;;;;;3031281;19;4596;-25
2024/04/02 00:14:47;;;;;;;;;;;21.50;43.90;;;;;;3052432;19;4739;-25
2024/04/02 00:15:48;;;;;;;;;;;21.60;43.90;;;;;;3031796;19;4624;-24
2024/04/02 00:16:48;;;;;;;;;;;21.60;43.90;;;;;;3053025;19;4677;-24
2024/04/02 00:17:49;;;;;;;;;;;21.60;43.90;;;;;;3052232;19;4668;-25
2024/04/02 00:18:50;;;;;;;;;;;21.60;43.90;;;;;;3047044;19;5810;-24
2024/04/02 00:19:50;;;;;;;;;;;21.60;43.90;;;;;;3053252;19;4647;-25
2024/04/02 00:20:52;;;;;;;;;;;21.50;43.90;;;;;;3029278;19;4670;-26
2024/04/02 00:21:52;;;;;;;;;;;21.50;43.90;;;;;;3052562;19;4850;-25
2024/04/02 00:22:53;;;;;;;;;;;21.60;44.00;;;;;;3052491;19;4592;-25
2024/04/02 00:23:53;;;;;;;;;;;21.50;44.00;;;;;;3032098;19;4618;-24
2024/04/02 00:24:54;;;;;;;;;;;21.50;44.10;;;;;;3052996;19;4662;-24
2024/04/02 00:26:01;;;;;;;;;;;21.50;44.10;;;;;;3053514;19;4687;-26
2024/04/02 00:27:02;;;;;;;;;;;21.50;44.10;;;;;;3047495;19;4423;-24
2024/04/02 00:28:03;;;;;;;;;;;21.40;44.00;;;;;;3051810;19;4671;-24
2024/04/02 00:29:04;;;;;;;;;;;21.50;44.00;;;;;;3032093;19;4565;-25
2024/04/02 00:30:05;;;;;;;;;;;21.50;44.10;;;;;;3053214;19;4600;-24
2024/04/02 00:31:06;;;;;;;;;;;21.50;44.00;;;;;;3053546;19;4591;-24
2024/04/02 00:32:07;;;;;;;;;;;21.40;43.90;;;;;;3030511;19;5009;-26
2024/04/02 00:33:07;;;;;;;;;;;21.40;44.00;;;;;;3050775;19;5117;-24
2024/04/02 00:34:08;;;;;;;;;;;21.50;44.00;;;;;;3048085;19;6018;-26
2024/04/02 00:35:08;;;;;;;;;;;21.50;44.10;;;;;;3052283;19;4727;-26
2024/04/02 00:36:09;;;;;;;;;;;21.40;43.90;;;;;;3052621;19;4659;-24
2024/04/02 00:37:10;;;;;;;;;;;21.40;43.90;;;;;;3031672;19;4606;-27
2024/04/02 00:38:10;;;;;;;;;;;21.40;44.00;;;;;;3050206;19;4664;-24
2024/04/02 00:39:11;;;;;;;;;;;21.40;44.00;;;;;;3052613;19;4700;-25
2024/04/02 00:40:12;;;;;;;;;;;21.40;44.00;;;;;;3030439;19;4595;-25
2024/04/02 00:41:12;;;;;;;;;;;21.40;44.00;;;;;;3051551;19;4734;-29
2024/04/02 00:42:13;;;;;;;;;;;21.40;44.00;;;;;;3048510;19;5753;-25
2024/04/02 00:43:13;;;;;;;;;;;21.40;44.00;;;;;;3052782;19;4774;-23
2024/04/02 00:44:14;;;;;;;;;;;21.50;44.00;;;;;;3051341;19;4769;-24
2024/04/02 00:45:15;;;;;;;;;;;21.40;44.00;;;;;;3032085;19;4055;-24
2024/04/02 00:46:15;;;;;;;;;;;21.40;44.00;;;;;;3051227;19;4669;-25
2024/04/02 00:47:16;;;;;;;;;;;21.40;43.90;;;;;;3051749;19;4660;-24
2024/04/02 00:48:17;;;;;;;;;;;21.40;44.00;;;;;;3031020;19;4597;-23
2024/04/02 00:49:18;;;;;;;;;;;21.40;43.90;;;;;;3051859;19;4651;-24
2024/04/02 00:50:18;;;;;;;;;;;21.40;43.90;;;;;;3048564;19;5750;-25
2024/04/02 00:51:19;;;;;;;;;;;21.40;43.90;;;;;;3050746;19;4733;-24
2024/04/02 00:52:19;;;;;;;;;;;21.40;44.00;;;;;;3051080;19;4647;-24
2024/04/02 00:53:21;;;;;;;;;;;21.40;44.10;;;;;;3030670;19;4566;-28
2024/04/02 00:54:21;;;;;;;;;;;21.40;43.90;;;;;;3051302;19;5066;-25
2024/04/02 00:55:22;;;;;;;;;;;21.30;43.90;;;;;;3051547;19;4782;-32
2024/04/02 00:56:22;;;;;;;;;;;21.40;43.90;;;;;;3030661;19;4520;-31
2024/04/02 00:57:23;;;;;;;;;;;21.40;44.00;;;;;;3051663;19;4659;-32
2024/04/02 00:58:24;;;;;;;;;;;21.40;43.90;;;;;;3049548;19;4417;-32
2024/04/02 00:59:24;;;;;;;;;;;21.40;44.00;;;;;;3052561;19;4674;-31
2024/04/02 01:00:25;;;;;;;;;;;21.30;44.00;;;;;;3052521;19;4661;-33
2024/04/02 01:01:26;;;;;;;;;;;21.30;43.90;;;;;;3030901;19;4544;-36
2024/04/02 01:02:26;;;;;;;;;;;21.40;44.10;;;;;;3051387;19;4669;-31
2024/04/02 01:03:27;;;;;;;;;;;21.30;44.00;;;;;;3036393;19;4654;-32
2024/04/02 01:04:28;;;;;;;;;;;21.30;44.00;;;;;;3052981;19;4781;-32
2024/04/02 01:05:28;;;;;;;;;;;21.30;44.00;;;;;;3052822;19;4676;-34
2024/04/02 01:06:29;;;;;;;;;;;21.40;44.00;;;;;;3048817;19;5675;-33
2024/04/02 01:07:29;;;;;;;;;;;21.50;44.10;;;;;;3052459;19;4692;-34
2024/04/02 01:08:31;;;;;;;;;;;21.30;44.00;;;;;;3052710;19;4609;-31
2024/04/02 01:09:31;;;;;;;;;;;21.30;44.00;;;;;;3030183;19;4629;-30
2024/04/02 01:10:32;;;;;;;;;;;21.30;44.00;;;;;;3052274;19;4679;-31
2024/04/02 01:11:33;;;;;;;;;;;21.30;44.00;;;;;;3030420;19;4627;-31
2024/04/02 01:12:34;;;;;;;;;;;21.30;44.00;;;;;;3051430;19;4620;-33
2024/04/02 01:13:35;;;;;;;;;;;21.30;44.00;;;;;;3052695;19;4700;-31
2024/04/02 01:14:39;;;;;;;;;;;21.30;44.00;;;;;;3047218;19;5759;-32
2024/04/02 01:15:40;;;;;;;;;;;21.30;44.00;;;;;;3052197;19;4680;-30
2024/04/02 01:16:42;;;;;;;;;;;21.30;44.00;;;;;;3053166;19;4668;-32
2024/04/02 01:17:42;;;;;;;;;;;21.20;44.00;;;;;;3030137;19;4596;-33
2024/04/02 01:18:46;;;;;;;;;;;21.20;44.00;;;;;;3052361;19;4700;-33
2024/04/02 01:19:47;;;;;;;;;;;21.30;44.10;;;;;;3031480;19;4610;-29
2024/04/02 01:20:47;;;;;;;;;;;21.20;44.00;;;;;;3052636;19;4603;-36
2024/04/02 01:21:48;;;;;;;;;;;21.30;44.10;;;;;;3052092;19;4757;-34
2024/04/02 01:22:49;;;;;;;;;;;21.30;44.10;;;;;;3048268;19;5755;-34
2024/04/02 01:23:50;;;;;;;;;;;21.20;44.00;;;;;;3051607;19;4690;-33
2024/04/02 01:24:57;;;;;;;;;;;21.30;44.30;;;;;;3031287;19;4688;-32
2024/04/02 01:25:58;;;;;;;;;;;21.20;44.00;;;;;;3051698;19;4627;-35
2024/04/02 01:26:59;;;;;;;;;;;21.20;44.00;;;;;;3052617;19;4593;-32
2024/04/02 01:28:00;;;;;;;;;;;21.20;44.10;;;;;;3030684;19;4653;-30
2024/04/02 01:29:03;;;;;;;;;;;21.20;44.00;;;;;;3052635;19;4748;-31
2024/04/02 01:30:04;;;;;;;;;;;21.20;44.10;;;;;;3052641;19;4602;-31
2024/04/02 01:31:05;;;;;;;;;;;21.20;44.10;;;;;;3048577;19;4400;-30
2024/04/02 01:32:05;;;;;;;;;;;21.20;44.10;;;;;;3052952;19;4548;-31
2024/04/02 01:33:06;;;;;;;;;;;21.20;44.10;;;;;;3033360;19;4523;-34
2024/04/02 01:34:07;;;;;;;;;;;21.20;44.10;;;;;;3054843;19;4592;-29
2024/04/02 01:35:08;;;;;;;;;;;21.20;44.20;;;;;;3054454;19;4704;-35
2024/04/02 01:36:08;;;;;;;;;;;21.20;44.20;;;;;;3033853;19;4484;-31
2024/04/02 01:37:09;;;;;;;;;;;21.20;44.10;;;;;;3054516;19;4680;-32
2024/04/02 01:38:10;;;;;;;;;;;21.20;44.80;;;;;;3049600;19;5719;-33
2024/04/02 01:39:10;;;;;;;;;;;21.20;44.20;;;;;;3054891;19;4685;-33
2024/04/02 01:40:11;;;;;;;;;;;21.20;44.20;;;;;;3054641;19;4633;-34
2024/04/02 01:41:12;;;;;;;;;;;21.20;44.20;;;;;;3034348;19;4241;-33
2024/04/02 01:42:12;;;;;;;;;;;21.20;44.20;;;;;;3054139;19;4623;-34
2024/04/02 01:43:13;;;;;;;;;;;21.20;44.20;;;;;;3054085;19;4681;-31
2024/04/02 01:44:14;;;;;;;;;;;21.10;44.20;;;;;;3032664;19;4884;-33
2024/04/02 01:45:15;;;;;;;;;;;21.20;44.30;;;;;;3054566;19;4676;-31
2024/04/02 01:46:16;;;;;;;;;;;21.10;44.20;;;;;;3050643;19;5919;-30
2024/04/02 01:47:17;;;;;;;;;;;21.10;44.30;;;;;;3054866;19;4648;-32
2024/04/02 01:48:18;;;;;;;;;;;21.10;44.20;;;;;;3054702;19;4687;-32
2024/04/02 01:49:19;;;;;;;;;;;21.20;44.30;;;;;;3033908;19;4485;-30
2024/04/02 01:50:21;;;;;;;;;;;21.10;44.20;;;;;;3054398;19;4734;-32
2024/04/02 01:51:23;;;;;;;;;;;21.10;44.20;;;;;;3054539;19;4705;-35
2024/04/02 01:52:23;;;;;;;;;;;21.20;44.30;;;;;;3032513;19;4573;-33
2024/04/02 01:53:24;;;;;;;;;;;21.10;44.20;;;;;;3055418;19;4803;-33
2024/04/02 01:54:26;;;;;;;;;;;21.10;44.30;;;;;;3050112;19;5810;-34
2024/04/02 01:55:26;;;;;;;;;;;21.10;44.30;;;;;;3053831;19;4646;-34
2024/04/02 01:56:27;;;;;;;;;;;21.10;44.30;;;;;;3054542;19;4818;-34
2024/04/02 01:57:28;;;;;;;;;;;21.10;44.30;;;;;;3033145;19;4610;-33
2024/04/02 01:58:28;;;;;;;;;;;21.10;44.40;;;;;;3053918;19;4867;-33
2024/04/02 01:59:29;;;;;;;;;;;21.10;44.40;;;;;;3032975;19;4819;-33
2024/04/02 02:00:30;;;;;;;;;;;21.10;44.40;;;;;;3053579;19;4686;-31
2024/04/02 02:01:30;;;;;;;;;;;21.10;44.40;;;;;;3052582;19;4863;-35
2024/04/02 02:02:31;;;;;;;;;;;21.10;44.40;;;;;;3049979;19;5660;-34
2024/04/02 02:03:32;;;;;;;;;;;21.10;44.40;;;;;;3053426;19;4696;-33
2024/04/02 02:04:32;;;;;;;;;;;22.00;44.90;;;;;;3054811;19;4879;-31
2024/04/02 02:05:33;;;;;;;;;;;21.10;44.40;;;;;;3031492;19;4808;-30
2024/04/02 02:06:33;;;;;;;;;;;21.10;44.40;;;;;;3054526;19;4625;-30
2024/04/02 02:07:34;;;;;;;;;;;21.10;44.40;;;;;;3033185;19;4628;-33
2024/04/02 02:08:35;;;;;;;;;;;21.10;44.40;;;;;;3053380;19;4833;-31
2024/04/02 02:09:35;;;;;;;;;;;21.10;44.40;;;;;;3054405;19;4683;-30
2024/04/02 02:10:36;;;;;;;;;;;21.10;44.40;;;;;;3051389;19;6636;-31
2024/04/02 02:11:37;;;;;;;;;;;21.10;44.40;;;;;;3053199;19;4732;-34
2024/04/02 02:12:37;;;;;;;;;;;21.10;44.50;;;;;;3054682;19;4662;-33
2024/04/02 02:13:38;;;;;;;;;;;21.10;44.60;;;;;;3032199;19;4544;-31
2024/04/02 02:14:39;;;;;;;;;;;21.10;44.50;;;;;;3054604;19;4742;-31
2024/04/02 02:15:39;;;;;;;;;;;21.10;44.50;;;;;;3032842;19;4877;-35
2024/04/02 02:16:40;;;;;;;;;;;21.10;44.50;;;;;;3053967;19;4727;-32
2024/04/02 02:17:42;;;;;;;;;;;21.00;44.50;;;;;;3053517;19;4725;-34
2024/04/02 02:18:42;;;;;;;;;;;21.00;44.50;;;;;;3050646;19;5833;-32
2024/04/02 02:19:43;;;;;;;;;;;21.10;44.60;;;;;;3054229;19;4708;-35
2024/04/02 02:20:44;;;;;;;;;;;21.10;44.60;;;;;;3054038;19;4696;-32
2024/04/02 02:21:47;;;;;;;;;;;21.10;44.60;;;;;;3032651;19;4559;-31
2024/04/02 02:22:48;;;;;;;;;;;21.00;44.50;;;;;;3054621;19;4692;-32
2024/04/02 02:23:50;;;;;;;;;;;21.00;44.60;;;;;;3032512;19;4836;-30
2024/04/02 02:24:50;;;;;;;;;;;21.00;44.60;;;;;;3054756;19;4640;-33
2024/04/02 02:25:51;;;;;;;;;;;21.00;44.60;;;;;;3054908;19;4654;-25
2024/04/02 02:26:52;;;;;;;;;;;21.00;44.60;;;;;;3050753;19;4243;-24
2024/04/02 02:27:53;;;;;;;;;;;21.00;44.60;;;;;;3054678;19;4667;-26
2024/04/02 02:28:53;;;;;;;;;;;21.00;44.60;;;;;;3033153;19;4736;-24
2024/04/02 02:29:54;;;;;;;;;;;21.00;44.60;;;;;;3053967;19;4746;-25
2024/04/02 02:30:55;;;;;;;;;;;21.00;44.70;;;;;;3054481;19;4670;-25
2024/04/02 02:31:56;;;;;;;;;;;21.00;44.70;;;;;;3032549;19;4641;-23
2024/04/02 02:32:56;;;;;;;;;;;21.00;44.80;;;;;;3054197;19;4650;-25
2024/04/02 02:33:57;;;;;;;;;;;21.00;44.70;;;;;;3053306;19;4767;-23
2024/04/02 02:34:58;;;;;;;;;;;21.00;44.60;;;;;;3046772;19;5653;-24
2024/04/02 02:35:58;;;;;;;;;;;21.00;44.60;;;;;;3053200;19;4628;-23
2024/04/02 02:36:59;;;;;;;;;;;21.00;44.60;;;;;;3031932;19;4864;-24
2024/04/02 02:37:59;;;;;;;;;;;21.10;45.10;;;;;;3054428;19;4650;-24
2024/04/02 02:39:00;;;;;;;;;;;21.20;44.40;;;;;;3054262;19;4725;-25
2024/04/02 02:40:01;;;;;;;;;;;21.20;44.30;;;;;;3032409;19;4615;-25
2024/04/02 02:41:01;;;;;;;;;;;21.30;44.20;;;;;;3052827;19;4636;-24
2024/04/02 02:42:04;;;;;;;;;;;21.40;44.10;;;;;;3052611;19;4743;-25
2024/04/02 02:43:04;;;;;;;;;;;21.40;43.90;;;;;;3050223;19;5714;-25
2024/04/02 02:44:05;;;;;;;;;;;21.40;43.80;;;;;;3052079;19;4593;-27
2024/04/02 02:45:06;;;;;;;;;;;21.40;43.70;;;;;;3032649;19;4512;-23
2024/04/02 02:46:07;;;;;;;;;;;21.50;43.70;;;;;;3053723;19;8400;-23
2024/04/02 02:47:07;;;;;;;;;;;21.40;43.60;;;;;;3053163;19;4717;-24
2024/04/02 02:48:08;;;;;;;;;;;21.50;43.60;;;;;;3031992;19;4220;-24
2024/04/02 02:49:09;;;;;;;;;;;21.50;43.60;;;;;;3053529;19;4618;-24
2024/04/02 02:50:10;;;;;;;;;;;21.50;43.50;;;;;;3050159;19;5886;-24
2024/04/02 02:51:10;;;;;;;;;;;21.50;43.50;;;;;;3054308;19;4655;-24
2024/04/02 02:52:11;;;;;;;;;;;21.50;43.50;;;;;;3053999;19;4689;-24
2024/04/02 02:53:12;;;;;;;;;;;21.50;43.40;;;;;;3033095;19;4634;-24
2024/04/02 02:54:12;;;;;;;;;;;21.60;43.40;;;;;;3053724;19;4826;-24
2024/04/02 02:55:13;;;;;;;;;;;21.60;43.20;;;;;;3053048;19;4717;-25
2024/04/02 02:56:17;;;;;;;;;;;21.60;43.20;;;;;;3033094;19;4166;-25
2024/04/02 02:57:17;;;;;;;;;;;21.70;43.20;;;;;;3053854;19;4658;-24
2024/04/02 02:58:18;;;;;;;;;;;21.70;43.00;;;;;;3051915;19;5619;-25
2024/04/02 02:59:19;;;;;;;;;;;21.70;43.00;;;;;;3053850;19;4857;-26
2024/04/02 03:00:20;;;;;;;;;;;21.70;43.00;;;;;;3053143;19;4778;-25
2024/04/02 03:01:20;;;;;;;;;;;21.70;42.90;;;;;;3032128;19;4646;-26
2024/04/02 03:02:21;;;;;;;;;;;21.70;42.80;;;;;;3053711;19;4651;-24
2024/04/02 03:03:22;;;;;;;;;;;21.70;42.90;;;;;;3054065;19;4686;-25
2024/04/02 03:04:22;;;;;;;;;;;21.70;42.90;;;;;;3031179;19;4646;-25
2024/04/02 03:05:23;;;;;;;;;;;21.70;42.90;;;;;;3054283;19;4851;-25
2024/04/02 03:06:24;;;;;;;;;;;21.70;42.90;;;;;;3050493;19;5787;-31
2024/04/02 03:07:24;;;;;;;;;;;21.70;42.90;;;;;;3054087;19;4711;-32
2024/04/02 03:08:25;;;;;;;;;;;21.70;42.80;;;;;;3054596;19;4670;-34
2024/04/02 03:09:26;;;;;;;;;;;21.80;42.80;;;;;;3032955;19;4537;-34
2024/04/02 03:10:26;;;;;;;;;;;21.80;42.70;;;;;;3053453;19;4816;-33
2024/04/02 03:11:27;;;;;;;;;;;21.80;42.70;;;;;;3036799;19;4677;-32
2024/04/02 03:12:27;;;;;;;;;;;21.80;42.60;;;;;;3054013;19;4858;-35
2024/04/02 03:13:28;;;;;;;;;;;21.90;42.60;;;;;;3053669;19;4780;-35
2024/04/02 03:14:29;;;;;;;;;;;21.90;42.50;;;;;;3051989;19;4370;-31
2024/04/02 03:15:29;;;;;;;;;;;21.90;42.50;;;;;;3054231;19;4776;-30
2024/04/02 03:16:30;;;;;;;;;;;21.90;42.50;;;;;;3053711;19;4734;-24
2024/04/02 03:17:31;;;;;;;;;;;21.90;42.50;;;;;;3031328;19;4627;-24
2024/04/02 03:18:31;;;;;;;;;;;21.90;42.50;;;;;;3053329;19;4864;-24
2024/04/02 03:19:32;;;;;;;;;;;21.90;42.50;;;;;;3031958;19;4712;-26
2024/04/02 03:20:37;;;;;;;;;;;21.90;42.60;;;;;;3054224;19;4702;-24
2024/04/02 03:21:38;;;;;;;;;;;21.90;42.70;;;;;;3054030;19;4679;-23
2024/04/02 03:22:39;;;;;;;;;;;21.90;42.60;;;;;;3050449;19;4499;-24
2024/04/02 03:23:39;;;;;;;;;;;21.90;42.60;;;;;;3053072;19;4740;-25
2024/04/02 03:24:40;;;;;;;;;;;21.80;42.60;;;;;;3053829;19;4741;-23
2024/04/02 03:25:41;;;;;;;;;;;21.90;42.70;;;;;;3032142;19;4619;-24
2024/04/02 03:26:41;;;;;;;;;;;21.90;42.70;;;;;;3054043;19;4749;-24
2024/04/02 03:27:42;;;;;;;;;;;21.90;42.80;;;;;;3032641;19;4631;-23
2024/04/02 03:28:42;;;;;;;;;;;21.90;42.70;;;;;;3052800;19;4890;-25
2024/04/02 03:29:43;;;;;;;;;;;21.90;42.60;;;;;;3053536;19;4656;-25
2024/04/02 03:30:44;;;;;;;;;;;21.90;42.60;;;;;;3051704;19;5595;-26
2024/04/02 03:31:47;;;;;;;;;;;21.90;42.70;;;;;;3053875;19;4635;-24
2024/04/02 03:32:47;;;;;;;;;;;21.80;42.60;;;;;;3035409;19;4625;-23
2024/04/02 03:33:48;;;;;;;;;;;21.80;42.70;;;;;;3052547;19;4759;-23
2024/04/02 03:34:48;;;;;;;;;;;21.80;42.70;;;;;;3053142;19;4655;-23
2024/04/02 03:35:50;;;;;;;;;;;21.80;42.70;;;;;;3031885;19;4651;-24
2024/04/02 03:36:50;;;;;;;;;;;21.90;42.70;;;;;;3053730;19;4846;-32
2024/04/02 03:37:51;;;;;;;;;;;21.90;42.70;;;;;;3053578;19;4824;-24
2024/04/02 03:38:52;;;;;;;;;;;22.00;42.70;;;;;;3048933;19;5753;-24
2024/04/02 03:39:53;;;;;;;;;;;22.00;42.70;;;;;;3053765;19;4703;-27
2024/04/02 03:40:53;;;;;;;;;;;22.00;42.70;;;;;;3032182;19;4786;-23
2024/04/02 03:41:55;;;;;;;;;;;22.00;42.60;;;;;;3051733;19;4793;-23
2024/04/02 03:42:57;;;;;;;;;;;22.00;42.50;;;;;;3053127;19;4642;-24
2024/04/02 03:43:57;;;;;;;;;;;22.10;42.60;;;;;;3031584;19;4658;-24
2024/04/02 03:44:58;;;;;;;;;;;22.10;42.50;;;;;;3053868;19;4650;-24
2024/04/02 03:46:02;;;;;;;;;;;22.10;42.50;;;;;;3054414;19;4696;-29
2024/04/02 03:47:02;;;;;;;;;;;22.10;42.40;;;;;;3050314;19;5746;-24
2024/04/02 03:48:03;;;;;;;;;;;22.10;42.40;;;;;;3053650;19;4652;-25
2024/04/02 03:49:04;;;;;;;;;;;22.10;42.40;;;;;;3031747;19;4621;-24
2024/04/02 03:50:05;;;;;;;;;;;22.10;42.40;;;;;;3053490;19;4581;-24
2024/04/02 03:51:06;;;;;;;;;;;22.10;42.30;;;;;;3053383;19;4638;-24
2024/04/02 03:52:07;;;;;;;;;;;22.10;42.40;;;;;;3032478;19;4089;-24
2024/04/02 03:53:07;;;;;;;;;;;22.10;42.40;;;;;;3051866;19;4685;-24
2024/04/02 03:54:08;;;;;;;;;;;22.10;42.40;;;;;;3051389;19;5745;-25
2024/04/02 03:55:09;;;;;;;;;;;22.10;42.40;;;;;;3052883;19;4714;-24
2024/04/02 03:56:09;;;;;;;;;;;22.10;42.50;;;;;;3053400;19;4626;-26
2024/04/02 03:57:10;;;;;;;;;;;22.10;42.50;;;;;;3031309;19;4575;-24
2024/04/02 03:58:11;;;;;;;;;;;22.10;42.50;;;;;;3051201;19;4707;-24
2024/04/02 03:59:11;;;;;;;;;;;22.00;42.50;;;;;;3053559;19;4827;-24
2024/04/02 04:00:13;;;;;;;;;;;22.00;42.50;;;;;;3031613;19;4130;-27
2024/04/02 04:01:14;;;;;;;;;;;22.00;42.60;;;;;;3052410;19;4625;-27
2024/04/02 04:02:14;;;;;;;;;;;22.00;42.70;;;;;;3051175;19;5723;-24
2024/04/02 04:03:16;;;;;;;;;;;22.00;42.70;;;;;;3053083;19;4688;-25
2024/04/02 04:04:17;;;;;;;;;;;22.00;42.70;;;;;;3052703;19;4794;-25
2024/04/02 04:05:18;;;;;;;;;;;22.00;42.70;;;;;;3031546;19;4603;-25
2024/04/02 04:06:19;;;;;;;;;;;22.00;42.80;;;;;;3052586;19;4704;-26
2024/04/02 04:07:19;;;;;;;;;;;22.00;42.80;;;;;;3053715;19;4899;-25
2024/04/02 04:08:20;;;;;;;;;;;22.00;42.80;;;;;;3030970;19;4616;-26
2024/04/02 04:09:21;;;;;;;;;;;21.90;42.90;;;;;;3053458;19;4624;-24
2024/04/02 04:10:22;;;;;;;;;;;21.90;42.90;;;;;;3048782;19;5830;-26
2024/04/02 04:11:22;;;;;;;;;;;21.90;42.90;;;;;;3052907;19;4690;-24
2024/04/02 04:12:23;;;;;;;;;;;21.90;42.90;;;;;;3052737;19;4745;-25
2024/04/02 04:13:23;;;;;;;;;;;21.90;42.90;;;;;;3031808;19;4567;-24
2024/04/02 04:14:24;;;;;;;;;;;21.80;42.90;;;;;;3052165;19;4630;-24
2024/04/02 04:15:25;;;;;;;;;;;21.80;43.00;;;;;;3053729;19;4680;-25
2024/04/02 04:16:25;;;;;;;;;;;21.80;43.00;;;;;;3030905;19;4636;-24
2024/04/02 04:17:26;;;;;;;;;;;21.80;42.90;;;;;;3053581;19;4667;-24
2024/04/02 04:18:27;;;;;;;;;;;21.80;43.00;;;;;;3051467;19;5850;-26
2024/04/02 04:19:27;;;;;;;;;;;21.80;43.10;;;;;;3050725;19;4718;-24
2024/04/02 04:20:30;;;;;;;;;;;21.80;43.20;;;;;;3052586;19;4702;-24
2024/04/02 04:21:31;;;;;;;;;;;21.70;43.10;;;;;;3030782;19;4587;-24
2024/04/02 04:22:32;;;;;;;;;;;21.80;43.20;;;;;;3053075;19;4666;-25
2024/04/02 04:23:32;;;;;;;;;;;21.70;43.10;;;;;;3031738;19;4641;-26
2024/04/02 04:24:33;;;;;;;;;;;21.70;43.20;;;;;;3052021;19;4841;-24
2024/04/02 04:25:34;;;;;;;;;;;21.70;43.20;;;;;;3052525;19;4654;-25
2024/04/02 04:26:34;;;;;;;;;;;21.70;43.30;;;;;;3050029;19;5659;-31
2024/04/02 04:27:38;;;;;;;;;;;21.70;43.30;;;;;;3052808;19;4775;-32
2024/04/02 04:28:39;;;;;;;;;;;21.70;43.40;;;;;;3053078;19;4959;-34
2024/04/02 04:29:39;;;;;;;;;;;21.70;43.40;;;;;;3030627;19;4560;-34
2024/04/02 04:30:40;;;;;;;;;;;21.70;43.40;;;;;;3051513;19;4703;-30
2024/04/02 04:31:45;;;;;;;;;;;21.60;43.40;;;;;;3031373;19;4669;-30
2024/04/02 04:32:46;;;;;;;;;;;21.70;43.50;;;;;;3052901;19;4706;-32
2024/04/02 04:33:46;;;;;;;;;;;21.70;43.60;;;;;;3053123;19;4638;-35
2024/04/02 04:34:47;;;;;;;;;;;21.70;43.60;;;;;;3048435;19;5782;-32
2024/04/02 04:35:48;;;;;;;;;;;21.70;43.50;;;;;;3052212;19;4662;-33
2024/04/02 04:36:48;;;;;;;;;;;21.70;43.30;;;;;;3031302;19;4592;-33
2024/04/02 04:37:49;;;;;;;;;;;21.80;43.40;;;;;;3052949;19;4567;-34
2024/04/02 04:38:50;;;;;;;;;;;21.90;43.30;;;;;;3052467;19;4832;-32
2024/04/02 04:39:50;;;;;;;;;;;21.90;43.30;;;;;;3030622;19;4649;-34
2024/04/02 04:40:51;;;;;;;;;;;21.90;43.30;;;;;;3051263;19;4816;-31
2024/04/02 04:41:52;;;;;;;;;;;21.90;43.30;;;;;;3051287;19;4734;-33
2024/04/02 04:42:52;;;;;;;;;;;21.90;43.30;;;;;;3050372;19;5713;-30
2024/04/02 04:43:53;;;;;;;;;;;21.90;43.20;;;;;;3052137;19;4684;-31
2024/04/02 04:44:54;;;;;;;;;;;22.00;43.20;;;;;;3031628;19;4963;-33
2024/04/02 04:46:00;;;;;;;;;;;22.00;43.20;;;;;;3052228;19;4678;-30
2024/04/02 04:47:00;;;;;;;;;;;22.00;43.20;;;;;;3051769;19;4627;-33
2024/04/02 04:48:07;;;;;;;;;;;22.00;43.20;;;;;;3030648;19;4641;-34
2024/04/02 04:49:08;;;;;;;;;;;22.00;43.10;;;;;;3052296;19;4788;-31
2024/04/02 04:50:08;;;;;;;;;;;22.00;43.10;;;;;;3050538;19;5699;-31
2024/04/02 04:51:09;;;;;;;;;;;22.00;43.10;;;;;;3052747;19;1141;-32
2024/04/02 04:52:10;;;;;;;;;;;22.00;43.10;;;;;;3052119;19;4717;-31
2024/04/02 04:53:10;;;;;;;;;;;22.00;43.10;;;;;;3031852;19;4545;-31
2024/04/02 04:54:11;;;;;;;;;;;22.00;43.20;;;;;;3051701;19;4841;-30
2024/04/02 04:55:12;;;;;;;;;;;22.00;43.10;;;;;;3052402;19;4647;-34
2024/04/02 04:56:12;;;;;;;;;;;22.00;43.00;;;;;;3030106;19;4629;-34
2024/04/02 04:57:13;;;;;;;;;;;22.00;43.00;;;;;;3052060;19;4702;-24
2024/04/02 04:58:14;;;;;;;;;;;22.00;43.00;;;;;;3049513;19;5727;-24
2024/04/02 04:59:14;;;;;;;;;;;22.10;43.00;;;;;;3052187;19;1148;-25
2024/04/02 05:00:15;;;;;;;;;;;22.10;42.90;;;;;;3051720;19;4676;-25
2024/04/02 05:01:15;;;;;;;;;;;22.10;42.90;;;;;;3031036;19;4661;-26
2024/04/02 05:02:16;;;;;;;;;;;22.10;42.90;;;;;;3051816;19;4834;-25
2024/04/02 05:03:17;;;;;;;;;;;22.10;42.90;;;;;;3052156;19;4647;-24
2024/04/02 05:04:17;;;;;;;;;;;22.10;42.90;;;;;;3027624;19;4720;-26
2024/04/02 05:05:18;;;;;;;;;;;22.10;42.90;;;;;;3052428;19;4818;-26
2024/04/02 05:06:18;;;;;;;;;;;22.10;42.90;;;;;;3050447;19;5702;-26
2024/04/02 05:07:23;;;;;;;;;;;22.10;42.90;;;;;;3051152;19;4715;-25
2024/04/02 05:08:25;;;;;;;;;;;22.10;42.90;;;;;;3051512;19;4647;-25
2024/04/02 05:09:26;;;;;;;;;;;22.10;42.90;;;;;;3028948;19;4676;-24
2024/04/02 05:10:27;;;;;;;;;;;22.10;42.90;;;;;;3051155;19;4761;-24
2024/04/02 05:11:27;;;;;;;;;;;22.90;43.30;;;;;;3033486;19;4670;-25
2024/04/02 05:12:28;;;;;;;;;;;22.10;42.80;;;;;;3051332;19;4750;-24
2024/04/02 05:13:30;;;;;;;;;;;22.10;42.80;;;;;;3051184;19;4800;-24
2024/04/02 05:14:30;;;;;;;;;;;22.10;42.80;;;;;;3048889;19;5694;-23
2024/04/02 05:15:31;;;;;;;;;;;22.10;42.80;;;;;;3051956;19;4662;-25
2024/04/02 05:16:34;;;;;;;;;;;22.10;42.80;;;;;;3051877;19;4684;-26
2024/04/02 05:17:35;;;;;;;;;;;22.10;42.80;;;;;;3030862;19;4619;-26
2024/04/02 05:18:35;;;;;;;;;;;22.10;42.80;;;;;;3051884;19;4669;-25
2024/04/02 05:19:36;;;;;;;;;;;22.10;42.80;;;;;;3031474;19;4599;-24
2024/04/02 05:20:36;;;;;;;;;;;22.10;42.80;;;;;;3052073;19;4657;-24
2024/04/02 05:21:37;;;;;;;;;;;22.10;42.80;;;;;;3052579;19;4809;-24
2024/04/02 05:22:38;;;;;;;;;;;22.10;42.80;;;;;;3048063;19;5904;-27
2024/04/02 05:23:39;;;;;;;;;;;22.10;42.80;;;;;;3052146;19;4709;-24
2024/04/02 05:24:40;;;;;;;;;;;22.10;42.70;;;;;;3052325;19;4756;-24
2024/04/02 05:25:41;;;;;;;;;;;22.10;42.70;;;;;;3030330;19;4611;-24
2024/04/02 05:26:42;;;;;;;;;;;22.10;42.80;;;;;;3050973;19;4645;-24
2024/04/02 05:27:43;;;;;;;;;;;22.10;42.70;;;;;;3031179;19;4614;-24
2024/04/02 05:28:43;;;;;;;;;;;22.10;42.80;;;;;;3051967;19;4725;-24
2024/04/02 05:29:46;;;;;;;;;;;22.00;42.60;;;;;;3052840;19;4717;-25
2024/04/02 05:30:47;;;;;;;;;;;22.10;42.70;;;;;;3049514;19;5657;-23
2024/04/02 05:31:47;;;;;;;;;;;22.00;42.70;;;;;;3051011;19;4714;-24
2024/04/02 05:32:48;;;;;;;;;;;22.10;42.80;;;;;;3029980;19;4711;-25
2024/04/02 05:33:48;;;;;;;;;;;22.00;42.80;;;;;;3051904;19;4754;-24
2024/04/02 05:34:49;;;;;;;;;;;22.00;42.80;;;;;;3051748;19;4673;-24
2024/04/02 05:35:50;;;;;;;;;;;22.00;42.80;;;;;;3031077;19;4625;-25
2024/04/02 05:36:50;;;;;;;;;;;22.00;42.80;;;;;;3051177;19;4642;-24
2024/04/02 05:37:54;;;;;;;;;;;22.00;42.80;;;;;;3051230;19;5281;-24
2024/04/02 05:38:54;;;;;;;;;;;22.00;42.70;;;;;;3033585;19;5862;-26
2024/04/02 05:39:55;;;;;;;;;;;22.10;42.80;;;;;;3050404;19;4731;-24
2024/04/02 05:40:56;;;;;;;;;;;22.10;42.70;;;;;;3029837;19;4890;-24
2024/04/02 05:41:56;;;;;;;;;;;22.10;42.70;;;;;;3050507;19;4750;-23
2024/04/02 05:42:57;;;;;;;;;;;22.10;42.60;;;;;;3049982;19;4710;-25
2024/04/02 05:43:58;;;;;;;;;;;22.10;42.60;;;;;;3028855;19;4612;-24
2024/04/02 05:44:58;;;;;;;;;;;22.20;42.60;;;;;;3050112;19;4666;-24
2024/04/02 05:45:59;;;;;;;;;;;22.20;42.60;;;;;;3049786;19;4703;-25
2024/04/02 05:46:59;;;;;;;;;;;22.20;42.60;;;;;;3047254;19;5672;-26
2024/04/02 05:48:00;;;;;;;;;;;22.20;42.50;;;;;;3049003;19;4630;-24
2024/04/02 05:49:01;;;;;;;;;;;22.20;42.60;;;;;;3029097;19;4746;-24
2024/04/02 05:50:02;;;;;;;;;;;22.20;42.50;;;;;;3049420;19;4916;-25
2024/04/02 05:51:03;;;;;;;;;;;22.20;42.60;;;;;;3050137;19;4647;-24
2024/04/02 05:52:04;;;;;;;;;;;22.20;42.60;;;;;;3028201;19;4629;-25
2024/04/02 05:53:04;;;;;;;;;;;22.20;42.60;;;;;;3049112;19;4622;-24
2024/04/02 05:54:05;;;;;;;;;;;22.20;42.60;;;;;;3049354;19;4636;-26
2024/04/02 05:55:06;;;;;;;;;;;22.10;42.60;;;;;;3047442;19;20837;-23
2024/04/02 05:56:06;;;;;;;;;;;22.10;42.60;;;;;;3050036;19;4790;-25
2024/04/02 05:57:07;;;;;;;;;;;22.10;42.70;;;;;;3029929;19;4555;-27
2024/04/02 05:58:07;;;;;;;;;;;22.10;42.70;;;;;;3048774;19;4679;-24
2024/04/02 05:59:08;;;;;;;;;;;22.10;42.80;;;;;;3050013;19;4783;-24
2024/04/02 06:00:10;;;;;;;;;;;22.10;42.80;;;;;;3026947;19;4624;-26